Time;durP1;ratioP1;P1;durP2;ratioP2;P2;SDS_P1;SDS_P2;PMS_P1;PMS_P2;Temp;Humidity;BMP_temperature;BMP_pressure;BME280_temperature;BME280_humidity;BME280_pressure;Samples;Min_cycle;Max_cycle;Signal;HPM_P1;HPM_P2
2021/01/16 00:01:43;;;;;;;23.17;12.70;;;-0.10;99.90;;;;;;5042521;28;20128;-69
2021/01/16 00:04:10;;;;;;;22.73;12.35;;;-0.10;99.90;;;;;;5041995;28;20053;-69
2021/01/16 00:06:36;;;;;;;22.55;13.32;;;-0.10;99.90;;;;;;5038842;28;20048;-70
2021/01/16 00:09:03;;;;;;;25.38;12.73;;;-0.10;99.90;;;;;;5044016;28;20101;-68
2021/01/16 00:11:30;;;;;;;24.13;13.80;;;-0.10;99.90;;;;;;5034947;28;20087;-70
2021/01/16 00:13:56;;;;;;;25.45;14.52;;;-0.10;99.90;;;;;;5041120;28;20456;-70
2021/01/16 00:16:23;;;;;;;24.88;13.52;;;-0.20;99.90;;;;;;5039100;28;20498;-70
2021/01/16 00:18:49;;;;;;;24.73;14.20;;;-0.20;99.90;;;;;;5046381;28;20071;-69
2021/01/16 00:21:15;;;;;;;25.92;13.80;;;-0.20;99.90;;;;;;5028386;28;20049;-69
2021/01/16 00:23:42;;;;;;;24.65;13.85;;;-0.20;99.90;;;;;;5032333;28;20116;-68
2021/01/16 00:26:09;;;;;;;28.65;13.55;;;-0.20;99.90;;;;;;5032202;28;20400;-69
2021/01/16 00:28:35;;;;;;;30.63;13.07;;;-0.30;99.90;;;;;;5037703;28;20447;-70
2021/01/16 00:31:03;;;;;;;24.48;13.10;;;-0.40;99.90;;;;;;5043488;28;20491;-70
2021/01/16 00:33:32;;;;;;;27.88;13.65;;;-0.40;99.90;;;;;;5037872;28;20045;-70
2021/01/16 00:36:00;;;;;;;25.30;14.38;;;-0.50;99.90;;;;;;5035771;28;20123;-69
2021/01/16 00:38:28;;;;;;;25.85;13.35;;;-0.50;99.90;;;;;;5031252;28;20144;-69
2021/01/16 00:40:56;;;;;;;24.13;13.30;;;-0.60;99.90;;;;;;5043813;28;20574;-69
2021/01/16 00:43:23;;;;;;;26.50;12.85;;;-0.60;99.90;;;;;;5041019;28;20073;-70
2021/01/16 00:45:51;;;;;;;25.33;13.50;;;-0.60;99.90;;;;;;5065174;28;20076;-69
2021/01/16 00:48:23;;;;;;;23.83;13.43;;;-0.60;99.90;;;;;;5044833;28;20049;-69
2021/01/16 00:50:53;;;;;;;22.73;12.55;;;-0.60;99.90;;;;;;5047224;28;20049;-69
2021/01/16 00:53:19;;;;;;;28.52;14.18;;;-0.70;99.90;;;;;;5032637;28;20049;-70
2021/01/16 00:55:46;;;;;;;27.30;14.40;;;-0.80;99.90;;;;;;5040493;28;20150;-70
2021/01/16 00:58:16;;;;;;;27.17;14.48;;;-1.00;99.90;;;;;;5038094;28;20080;-69
2021/01/16 01:00:47;;;;;;;26.48;14.63;;;-1.10;99.90;;;;;;5037222;28;20124;-69
2021/01/16 01:03:19;;;;;;;25.20;14.07;;;-1.20;99.90;;;;;;5050484;28;20484;-70
2021/01/16 01:05:46;;;;;;;29.60;14.43;;;-1.30;99.90;;;;;;5050397;28;20489;-70
2021/01/16 01:08:12;;;;;;;28.50;14.70;;;-1.50;99.90;;;;;;5049576;28;20534;-70
2021/01/16 01:10:44;;;;;;;35.30;17.40;;;-1.60;99.90;;;;;;5044867;28;20136;-70
2021/01/16 01:13:12;;;;;;;24.85;12.52;;;-1.70;99.90;;;;;;5042626;28;20041;-70
2021/01/16 01:15:38;;;;;;;27.73;13.65;;;-1.70;99.90;;;;;;5046463;28;20543;-69
2021/01/16 01:18:06;;;;;;;24.52;12.38;;;-1.70;99.90;;;;;;5029516;28;20602;-69
2021/01/16 01:20:33;;;;;;;24.27;12.95;;;-1.70;99.90;;;;;;5034549;28;20120;-70
2021/01/16 01:23:01;;;;;;;19.40;11.55;;;-1.80;99.90;;;;;;5031892;28;20092;-70
2021/01/16 01:25:27;;;;;;;21.75;12.73;;;-1.70;99.90;;;;;;5035579;28;20138;-69
2021/01/16 01:27:59;;;;;;;24.40;13.27;;;-1.70;99.90;;;;;;5031360;28;20610;-70
2021/01/16 01:30:27;;;;;;;21.33;11.90;;;-1.70;99.90;;;;;;5037000;28;20560;-70
2021/01/16 01:32:55;;;;;;;23.15;11.35;;;-1.70;99.90;;;;;;5033050;28;20388;-69
2021/01/16 01:35:22;;;;;;;20.13;9.98;;;-1.70;99.90;;;;;;5044529;28;20293;-70
2021/01/16 01:37:51;;;;;;;23.80;11.75;;;-1.80;99.90;;;;;;5049900;28;20523;-70
2021/01/16 01:40:19;;;;;;;31.08;14.45;;;-1.90;99.90;;;;;;5051688;28;20057;-70
2021/01/16 01:42:52;;;;;;;27.92;13.73;;;-2.20;99.90;;;;;;5034834;28;20560;-70
2021/01/16 01:45:19;;;;;;;30.02;15.52;;;-2.40;99.90;;;;;;5036556;28;20139;-69
2021/01/16 01:47:47;;;;;;;23.88;12.82;;;-2.40;99.90;;;;;;5047565;28;20396;-70
2021/01/16 01:50:16;;;;;;;26.05;13.23;;;-2.50;99.90;;;;;;5031533;28;20045;-69
2021/01/16 01:52:48;;;;;;;;;;;-2.60;99.90;;;;;;5031824;28;20224;-69
2021/01/16 01:55:15;;;;;;;26.27;13.00;;;-2.70;99.90;;;;;;5043821;28;19964;-70
2021/01/16 01:58:01;;;;;;;25.63;13.30;;;-2.80;99.90;;;;;;5049871;28;20055;-69
2021/01/16 02:00:27;;;;;;;27.70;13.27;;;-2.90;99.90;;;;;;5049625;28;20053;-70
2021/01/16 02:02:59;;;;;;;29.33;14.13;;;-3.00;99.90;;;;;;5048064;28;20467;-69
2021/01/16 02:05:25;;;;;;;24.90;13.25;;;-3.10;99.90;;;;;;5042792;28;20500;-70
2021/01/16 02:07:52;;;;;;;25.98;14.48;;;-3.20;99.90;;;;;;5030362;28;20081;-69
2021/01/16 02:10:22;;;;;;;25.17;12.70;;;-3.20;99.90;;;;;;5033405;28;20053;-69
2021/01/16 02:12:57;;;;;;;22.83;11.10;;;-3.20;99.90;;;;;;5029829;28;20554;-69
2021/01/16 02:15:30;;;;;;;28.33;14.45;;;-3.20;99.90;;;;;;5031401;28;20061;-70
2021/01/16 02:18:04;;;;;;;30.38;15.07;;;-3.30;99.90;;;;;;5030043;28;20049;-69
2021/01/16 02:20:37;;;;;;;32.05;15.27;;;-3.40;99.90;;;;;;5043184;28;20607;-69
2021/01/16 02:23:06;;;;;;;27.33;13.52;;;-3.40;99.90;;;;;;5037522;28;20140;-70
2021/01/16 02:25:52;;;;;;;27.98;14.52;;;-3.40;99.90;;;;;;5044866;28;20136;-69
2021/01/16 02:28:22;;;;;;;23.77;13.18;;;-3.50;99.90;;;;;;5048496;28;20133;-69
2021/01/16 02:30:51;;;;;;;21.35;11.80;;;-3.60;99.90;;;;;;5050881;28;20111;-69
2021/01/16 02:33:22;;;;;;;28.27;14.20;;;-3.60;99.90;;;;;;5048651;28;20045;-69
2021/01/16 02:36:07;;;;;;;33.00;16.13;;;-3.70;99.90;;;;;;5046697;28;20428;-69
2021/01/16 02:38:49;;;;;;;29.60;12.68;;;-3.80;99.90;;;;;;5031410;28;20141;-69
2021/01/16 02:41:26;;;;;;;;;;;-3.80;99.90;;;;;;5037125;28;20048;-69
2021/01/16 02:44:05;;;;;;;25.58;12.65;;;-3.80;99.90;;;;;;5033473;28;20008;-70
2021/01/16 02:46:46;;;;;;;22.38;11.65;;;-3.90;99.90;;;;;;5032196;28;20140;-69
2021/01/16 02:49:37;;;;;;;27.90;14.32;;;-4.00;99.90;;;;;;5039503;28;20044;-70
2021/01/16 02:52:06;;;;;;;23.77;12.57;;;-4.10;99.90;;;;;;5041229;28;20462;-69
2021/01/16 02:54:38;;;;;;;24.75;12.80;;;-4.10;99.90;;;;;;5036986;28;20534;-69
2021/01/16 02:57:09;;;;;;;24.17;12.02;;;-4.10;99.90;;;;;;5036862;28;20116;-69
2021/01/16 02:59:37;;;;;;;31.50;14.98;;;-4.10;99.90;;;;;;5048671;28;20511;-70
2021/01/16 03:02:05;;;;;;;24.92;13.60;;;-4.20;99.90;;;;;;5036644;28;20056;-69
2021/01/16 03:04:33;;;;;;;26.63;13.70;;;-4.30;99.90;;;;;;5062926;28;20135;-70
2021/01/16 03:07:00;;;;;;;24.73;12.77;;;-4.30;99.90;;;;;;5041645;28;20041;-69
2021/01/16 03:09:29;;;;;;;27.38;13.23;;;-4.40;99.90;;;;;;5038305;28;20053;-70
2021/01/16 03:11:57;;;;;;;25.65;13.38;;;-4.40;99.90;;;;;;5040537;28;20117;-70
2021/01/16 03:14:26;;;;;;;25.83;13.15;;;-4.40;99.90;;;;;;5042605;28;20085;-69
2021/01/16 03:17:01;;;;;;;23.70;11.73;;;-4.40;99.90;;;;;;5020367;28;20087;-70
2021/01/16 03:19:31;;;;;;;26.88;13.75;;;-4.40;99.90;;;;;;5031122;28;20061;-69
2021/01/16 03:21:57;;;;;;;27.67;13.05;;;-4.60;99.90;;;;;;5038341;28;20415;-70
2021/01/16 03:24:24;;;;;;;27.20;13.80;;;-4.60;99.90;;;;;;5042488;28;20137;-69
2021/01/16 03:26:51;;;;;;;28.35;13.82;;;-4.70;99.90;;;;;;5028014;28;20048;-69
2021/01/16 03:29:17;;;;;;;22.63;12.07;;;-4.80;99.90;;;;;;5029175;28;20561;-70
2021/01/16 03:31:44;;;;;;;25.23;12.10;;;-4.80;99.90;;;;;;5049736;28;20110;-70
2021/01/16 03:34:10;;;;;;;24.48;12.63;;;-4.80;99.90;;;;;;5036602;28;20510;-69
2021/01/16 03:36:37;;;;;;;30.90;15.52;;;-4.90;99.90;;;;;;5038205;28;20120;-70
2021/01/16 03:39:03;;;;;;;32.38;15.85;;;-4.90;99.90;;;;;;5044444;28;20543;-70
2021/01/16 03:41:30;;;;;;;27.02;13.82;;;-4.90;99.90;;;;;;5033465;28;20052;-69
2021/01/16 03:43:56;;;;;;;29.25;13.00;;;-4.90;99.90;;;;;;5047810;28;20080;-69
2021/01/16 03:46:23;;;;;;;35.25;15.80;;;-4.90;99.90;;;;;;5043497;28;20120;-70
2021/01/16 03:48:49;;;;;;;27.33;13.80;;;-4.90;99.90;;;;;;5036757;28;20500;-69
2021/01/16 03:51:15;;;;;;;32.33;14.40;;;-4.90;99.90;;;;;;5038622;28;20049;-70
2021/01/16 03:53:42;;;;;;;32.30;15.77;;;-4.90;99.90;;;;;;5039110;28;20468;-69
2021/01/16 03:56:09;;;;;;;32.38;16.38;;;-4.90;99.90;;;;;;5046853;28;20053;-70
2021/01/16 03:58:35;;;;;;;38.00;18.23;;;-4.90;99.90;;;;;;5045653;28;20124;-70
2021/01/16 04:01:02;;;;;;;35.65;18.88;;;-4.90;99.90;;;;;;5045083;28;20124;-70
2021/01/16 04:03:28;;;;;;;32.30;16.40;;;-4.80;99.90;;;;;;5041476;28;20103;-70
2021/01/16 04:05:54;;;;;;;39.17;20.45;;;-4.80;99.90;;;;;;5041030;28;20136;-71
2021/01/16 04:08:21;;;;;;;34.03;14.48;;;-4.80;99.90;;;;;;5046144;28;20045;-70
2021/01/16 04:10:48;;;;;;;28.00;13.88;;;-4.70;99.90;;;;;;5047786;28;20124;-70
2021/01/16 04:13:14;;;;;;;37.00;17.60;;;-4.80;99.90;;;;;;5030229;28;20128;-70
2021/01/16 04:15:41;;;;;;;27.92;13.65;;;-4.80;99.90;;;;;;5028307;28;20095;-70
2021/01/16 04:18:07;;;;;;;25.73;13.32;;;-4.70;99.90;;;;;;5038972;28;20532;-70
2021/01/16 04:20:33;;;;;;;38.05;20.42;;;-4.50;99.90;;;;;;5049552;28;20578;-70
2021/01/16 04:23:00;;;;;;;35.25;19.00;;;-4.40;99.90;;;;;;5049651;28;20523;-70
2021/01/16 04:25:26;;;;;;;33.60;17.08;;;-4.30;99.90;;;;;;5050954;28;20549;-71
2021/01/16 04:27:53;;;;;;;27.20;14.13;;;-4.20;99.90;;;;;;5035527;28;20271;-70
2021/01/16 04:30:19;;;;;;;36.42;17.67;;;-4.20;99.90;;;;;;5033250;28;20092;-70
2021/01/16 04:32:49;;;;;;;44.05;21.27;;;-4.00;99.90;;;;;;5043958;28;20106;-69
2021/01/16 04:35:15;;;;;;;38.35;19.90;;;-3.90;99.90;;;;;;5050361;28;20085;-70
2021/01/16 04:37:45;;;;;;;45.83;21.77;;;-3.90;99.90;;;;;;5031850;28;20053;-70
2021/01/16 04:40:12;;;;;;;42.13;20.75;;;-3.70;99.90;;;;;;5033367;28;20525;-70
2021/01/16 04:42:46;;;;;;;40.47;20.15;;;-3.70;99.90;;;;;;5051708;28;20123;-69
2021/01/16 04:45:16;;;;;;;37.38;17.70;;;-3.70;99.90;;;;;;5043889;28;20511;-70
2021/01/16 04:47:45;;;;;;;42.20;18.95;;;-3.70;99.90;;;;;;5055770;28;20077;-70
2021/01/16 04:50:13;;;;;;;42.85;20.88;;;-3.60;99.90;;;;;;5045532;28;20076;-70
2021/01/16 04:52:41;;;;;;;37.67;19.30;;;-3.50;99.90;;;;;;5065166;28;20084;-70
2021/01/16 04:55:13;;;;;;;40.60;20.52;;;-3.40;99.90;;;;;;5040780;28;20045;-70
2021/01/16 04:57:41;;;;;;;41.22;23.00;;;-3.40;99.90;;;;;;5037578;28;20124;-70
2021/01/16 05:00:11;;;;;;;38.92;20.33;;;-3.40;99.90;;;;;;5043328;28;20070;-70
2021/01/16 05:02:41;;;;;;;33.33;17.77;;;-3.40;99.90;;;;;;5040885;28;20045;-70
2021/01/16 05:05:12;;;;;;;40.75;20.40;;;-3.30;99.90;;;;;;5039212;28;20048;-71
2021/01/16 05:07:38;;;;;;;36.80;18.60;;;-3.30;99.90;;;;;;5036175;28;20080;-71
2021/01/16 05:10:07;;;;;;;33.47;17.88;;;-3.20;99.90;;;;;;5030855;28;20073;-70
2021/01/16 05:12:46;;;;;;;37.67;19.40;;;-3.10;99.90;;;;;;5035669;28;20070;-69
2021/01/16 05:15:27;;;;;;;38.20;19.13;;;-3.20;99.90;;;;;;5033521;28;20049;-71
2021/01/16 05:18:05;;;;;;;41.95;21.17;;;-3.20;99.90;;;;;;5030106;28;20126;-70
2021/01/16 05:20:37;;;;;;;38.60;20.33;;;-3.20;99.90;;;;;;5048000;28;20041;-70
2021/01/16 05:23:17;;;;;;;38.63;19.50;;;-3.20;99.90;;;;;;5042074;28;20042;-70
2021/01/16 05:25:52;;;;;;;37.40;19.48;;;-3.20;99.90;;;;;;5046202;28;20049;-70
2021/01/16 05:28:23;;;;;;;40.25;20.65;;;-3.20;99.90;;;;;;5038469;28;20085;-70
2021/01/16 05:30:57;;;;;;;38.70;20.27;;;-3.10;99.90;;;;;;5049510;28;20182;-70
2021/01/16 05:33:27;;;;;;;38.97;20.35;;;-3.00;99.90;;;;;;5048991;28;20132;-70
2021/01/16 05:35:55;;;;;;;45.65;23.13;;;-2.90;99.90;;;;;;5043954;28;20049;-70
2021/01/16 05:38:33;;;;;;;38.85;20.23;;;-2.90;99.90;;;;;;5036106;28;20474;-70
2021/01/16 05:41:09;;;;;;;34.30;17.77;;;-2.80;99.90;;;;;;5034857;28;20081;-71
2021/01/16 05:43:37;;;;;;;44.85;20.13;;;-2.70;99.90;;;;;;5033587;28;20504;-70
2021/01/16 05:46:08;;;;;;;45.45;21.80;;;-2.80;99.90;;;;;;5035860;28;20153;-70
2021/01/16 05:48:35;;;;;;;37.50;19.15;;;-2.80;99.90;;;;;;5030594;28;20092;-70
2021/01/16 05:51:03;;;;;;;36.63;18.80;;;-2.80;99.90;;;;;;5030754;28;20041;-71
2021/01/16 05:53:29;;;;;;;41.78;21.48;;;-2.70;99.90;;;;;;5031852;28;20045;-70
2021/01/16 05:55:58;;;;;;;45.65;22.38;;;-2.70;99.90;;;;;;5049351;28;20073;-70
2021/01/16 05:58:31;;;;;;;44.28;20.88;;;-2.80;99.90;;;;;;5046266;28;20222;-70
2021/01/16 06:01:07;;;;;;;38.28;19.92;;;-2.70;99.90;;;;;;5041535;28;20091;-70
2021/01/16 06:03:38;;;;;;;46.60;24.23;;;-2.70;99.90;;;;;;5037921;28;20057;-70
2021/01/16 06:06:10;;;;;;;39.28;21.58;;;-2.60;99.90;;;;;;5032038;28;20041;-70
2021/01/16 06:08:50;;;;;;;45.40;23.20;;;-2.60;99.90;;;;;;5041658;28;20064;-70
2021/01/16 06:11:21;;;;;;;42.42;22.00;;;-2.60;99.90;;;;;;5029346;28;20412;-70
2021/01/16 06:13:50;;;;;;;44.13;21.52;;;-2.60;99.90;;;;;;5035207;28;20085;-71
2021/01/16 06:16:21;;;;;;;41.67;20.73;;;-2.60;99.90;;;;;;5031814;28;20419;-70
2021/01/16 06:18:55;;;;;;;37.80;18.98;;;-2.50;99.90;;;;;;5049074;28;20053;-69
2021/01/16 06:21:29;;;;;;;43.13;22.05;;;-2.50;99.90;;;;;;5034662;28;20114;-70
2021/01/16 06:23:58;;;;;;;43.28;22.58;;;-2.40;99.90;;;;;;5035365;28;20132;-70
2021/01/16 06:26:25;;;;;;;44.95;21.65;;;-2.40;99.90;;;;;;5041440;28;20488;-70
2021/01/16 06:28:57;;;;;;;36.83;19.38;;;-2.40;99.90;;;;;;5040328;28;20120;-70
2021/01/16 06:31:26;;;;;;;30.05;15.88;;;-2.40;99.90;;;;;;5030199;28;20046;-70
2021/01/16 06:34:00;;;;;;;19.05;10.98;;;-2.40;99.90;;;;;;5030337;28;20041;-70
2021/01/16 06:36:29;;;;;;;29.70;16.13;;;-2.20;99.90;;;;;;5030241;28;20049;-70
2021/01/16 06:39:01;;;;;;;35.95;18.30;;;-2.10;99.90;;;;;;5048074;28;20045;-71
2021/01/16 06:41:29;;;;;;;17.10;8.23;;;-2.10;99.90;;;;;;5047087;28;20524;-70
2021/01/16 06:43:57;;;;;;;17.80;10.27;;;-2.10;99.90;;;;;;5029271;28;20292;-70
2021/01/16 06:46:47;;;;;;;17.00;8.30;;;-2.10;99.90;;;;;;5031381;28;20152;-70
2021/01/16 06:49:27;;;;;;;19.20;9.98;;;-2.00;99.90;;;;;;5039056;28;20109;-70
2021/01/16 06:51:58;;;;;;;26.35;13.73;;;-1.90;99.90;;;;;;5031426;28;20117;-71
2021/01/16 06:54:47;;;;;;;13.27;7.63;;;-2.00;99.90;;;;;;5043056;28;20124;-70
2021/01/16 06:57:14;;;;;;;25.75;13.75;;;-1.90;99.90;;;;;;5031202;28;20064;-71
2021/01/16 06:59:42;;;;;;;23.58;12.82;;;-1.90;99.90;;;;;;5045320;28;20130;-70
2021/01/16 07:02:24;;;;;;;19.65;10.50;;;-1.90;99.90;;;;;;5045563;28;20077;-70
2021/01/16 07:04:58;;;;;;;21.58;11.40;;;-1.80;99.90;;;;;;5046035;28;20049;-69
2021/01/16 07:07:30;;;;;;;13.70;7.63;;;-1.80;99.90;;;;;;5045416;28;20438;-70
2021/01/16 07:10:00;;;;;;;12.80;7.45;;;-1.80;99.90;;;;;;5029806;28;20056;-70
2021/01/16 07:12:27;;;;;;;15.05;7.72;;;-1.90;99.90;;;;;;5033277;28;20045;-70
2021/01/16 07:14:54;;;;;;;13.57;7.07;;;-1.90;99.90;;;;;;5045055;28;20044;-71
2021/01/16 07:17:22;;;;;;;14.27;7.72;;;-1.90;99.90;;;;;;5047936;28;20600;-70
2021/01/16 07:19:49;;;;;;;13.30;8.23;;;-1.90;99.90;;;;;;5045735;28;20460;-70
2021/01/16 07:22:17;;;;;;;13.70;7.13;;;-1.90;99.90;;;;;;5029625;28;20053;-70
2021/01/16 07:24:45;;;;;;;12.57;6.65;;;-2.00;99.90;;;;;;5029267;28;20496;-70
2021/01/16 07:27:12;;;;;;;13.15;7.85;;;-2.00;99.90;;;;;;5037507;28;20179;-69
2021/01/16 07:29:42;;;;;;;13.18;7.63;;;-2.00;99.90;;;;;;5049944;28;20067;-70
2021/01/16 07:32:15;;;;;;;14.02;6.72;;;-2.00;99.90;;;;;;5045438;28;20049;-70
2021/01/16 07:34:49;;;;;;;13.18;6.82;;;-2.00;99.90;;;;;;5041531;28;20120;-70
2021/01/16 07:37:19;;;;;;;10.85;5.70;;;-1.90;99.90;;;;;;5053266;28;20106;-70
2021/01/16 07:39:45;;;;;;;12.30;6.05;;;-1.80;99.90;;;;;;5035966;28;20099;-70
2021/01/16 07:42:15;;;;;;;34.10;18.25;;;-1.70;99.90;;;;;;5038580;28;20102;-70
2021/01/16 07:44:44;;;;;;;20.85;11.05;;;-1.70;99.90;;;;;;5049309;28;20491;-70
2021/01/16 07:47:21;;;;;;;;;;;-1.70;99.90;;;;;;5035086;28;20077;-72
2021/01/16 07:49:53;;;;;;;19.33;10.05;;;-1.50;99.90;;;;;;5044257;28;20375;-70
2021/01/16 07:52:26;;;;;;;37.65;20.85;;;-1.40;99.90;;;;;;5044514;28;20080;-71
2021/01/16 07:55:07;;;;;;;35.53;21.53;;;-1.30;99.90;;;;;;5042858;28;20124;-70
2021/01/16 07:57:34;;;;;;;17.42;9.57;;;-1.30;99.90;;;;;;5046532;28;20087;-70
2021/01/16 08:00:07;;;;;;;15.15;8.35;;;-1.30;99.90;;;;;;5047796;28;20171;-71
2021/01/16 08:02:59;;;;;;;25.02;14.70;;;-1.20;99.90;;;;;;5030682;28;20107;-70
2021/01/16 08:05:29;;;;;;;19.05;11.20;;;-1.20;99.90;;;;;;5029371;28;20100;-70
2021/01/16 08:08:31;;;;;;;16.25;9.63;;;-1.10;99.90;;;;;;5044899;28;20132;-70
2021/01/16 08:11:02;;;;;;;14.55;6.30;;;-1.10;99.90;;;;;;5034363;28;20122;-70
2021/01/16 08:13:28;;;;;;;11.90;7.32;;;-1.10;99.90;;;;;;5033893;28;20081;-71
2021/01/16 08:16:02;;;;;;;18.25;10.07;;;-1.10;99.90;;;;;;5044141;28;20134;-70
2021/01/16 08:18:33;;;;;;;15.55;8.35;;;-1.20;99.90;;;;;;5031022;28;20050;-69
2021/01/16 08:21:08;;;;;;;12.15;6.65;;;-1.10;99.90;;;;;;5028708;28;20401;-71
2021/01/16 08:23:47;;;;;;;10.05;5.72;;;-1.10;99.90;;;;;;5046318;28;20061;-71
2021/01/16 08:26:13;;;;;;;11.43;6.32;;;-1.10;99.90;;;;;;5046254;28;20104;-71
2021/01/16 08:28:43;;;;;;;12.57;6.32;;;-1.10;99.90;;;;;;5048064;28;20113;-72
2021/01/16 08:31:29;;;;;;;10.43;5.45;;;-1.10;99.90;;;;;;5031983;28;20171;-71
2021/01/16 08:33:57;;;;;;;10.25;5.25;;;-1.20;99.90;;;;;;5035652;28;20041;-71
2021/01/16 08:36:26;;;;;;;9.98;5.75;;;-1.00;99.90;;;;;;5028059;28;20057;-70
2021/01/16 08:38:53;;;;;;;11.80;6.40;;;-0.90;99.90;;;;;;5049414;28;20428;-71
2021/01/16 08:41:24;;;;;;;11.10;6.07;;;-0.90;99.90;;;;;;5047140;28;20526;-70
2021/01/16 08:43:58;;;;;;;15.45;7.57;;;-0.90;99.90;;;;;;5035400;28;20057;-71
2021/01/16 08:46:36;;;;;;;12.02;6.43;;;-0.80;99.90;;;;;;5026859;28;20061;-70
2021/01/16 08:49:15;;;;;;;22.90;12.73;;;-0.70;99.90;;;;;;5041090;28;20140;-70
2021/01/16 08:51:42;;;;;;;16.67;7.75;;;-0.80;99.90;;;;;;5036576;28;20049;-70
2021/01/16 08:54:11;;;;;;;11.75;5.88;;;-0.80;99.90;;;;;;5041973;28;20045;-71
2021/01/16 08:57:01;;;;;;;11.55;5.90;;;-0.80;99.90;;;;;;5047426;28;20112;-70
2021/01/16 08:59:30;;;;;;;32.33;18.35;;;-0.70;99.90;;;;;;5039888;28;20141;-70
2021/01/16 09:02:13;;;;;;;35.22;15.98;;;-0.60;99.90;;;;;;5034033;28;20087;-70
2021/01/16 09:04:41;;;;;;;28.13;13.30;;;-0.50;99.90;;;;;;5033688;28;20069;-70
2021/01/16 09:07:24;;;;;;;19.50;9.95;;;-0.40;99.90;;;;;;5039630;28;20143;-70
2021/01/16 09:10:00;;;;;;;16.55;9.35;;;-0.20;99.90;;;;;;5045862;28;20119;-70
2021/01/16 09:12:35;;;;;;;16.77;9.27;;;-0.10;99.90;;;;;;5033521;28;20160;-70
2021/01/16 09:15:24;;;;;;;20.40;10.05;;;0.00;99.90;;;;;;5039281;28;20467;-70
2021/01/16 09:18:10;;;;;;;12.15;6.18;;;0.10;99.90;;;;;;5034824;28;20069;-69
2021/01/16 09:20:58;;;;;;;15.35;10.25;;;0.10;99.90;;;;;;5047016;28;20133;-70
2021/01/16 09:23:26;;;;;;;9.55;5.03;;;0.10;99.90;;;;;;5033527;28;20049;-70
2021/01/16 09:26:04;;;;;;;12.48;5.88;;;-0.10;99.90;;;;;;5046297;28;20041;-70
2021/01/16 09:28:43;;;;;;;37.05;19.88;;;0.00;99.90;;;;;;5040538;28;20053;-70
2021/01/16 09:31:39;;;;;;;37.38;20.65;;;-0.10;99.90;;;;;;5035937;28;20052;-70
2021/01/16 09:34:20;;;;;;;37.08;21.02;;;-0.20;99.90;;;;;;5039193;28;20103;-69
2021/01/16 09:36:56;;;;;;;47.03;23.73;;;-0.20;99.90;;;;;;5033503;28;20187;-70
2021/01/16 09:39:24;;;;;;;44.95;21.95;;;-0.10;99.90;;;;;;5041954;28;20056;-70
2021/01/16 09:41:59;;;;;;;45.47;24.20;;;-0.10;99.90;;;;;;5045356;28;20099;-68
2021/01/16 09:44:41;;;;;;;36.97;20.45;;;0.00;99.90;;;;;;5031375;28;20081;-69
2021/01/16 09:47:26;;;;;;;34.95;19.17;;;-0.10;99.90;;;;;;5030379;28;20133;-69
2021/01/16 09:50:11;;;;;;;28.60;16.50;;;-0.40;99.90;;;;;;5031814;28;20052;-69
2021/01/16 09:52:51;;;;;;;29.92;17.77;;;-0.70;99.90;;;;;;5033821;28;20049;-69
2021/01/16 09:55:32;;;;;;;35.22;18.83;;;-1.00;99.90;;;;;;5043248;28;20523;-69
2021/01/16 09:58:00;;;;;;;31.75;17.60;;;-1.30;99.90;;;;;;5058598;28;20056;-69
2021/01/16 10:00:31;;;;;;;41.65;22.33;;;-1.30;99.90;;;;;;5048264;28;20136;-69
2021/01/16 10:03:05;;;;;;;38.03;20.35;;;-1.10;99.90;;;;;;5036882;28;20050;-69
2021/01/16 10:05:42;;;;;;;34.17;17.98;;;-1.20;99.90;;;;;;5039630;28;20055;-69
2021/01/16 10:08:26;;;;;;;37.40;19.92;;;-1.40;99.90;;;;;;5034683;28;20152;-68
2021/01/16 10:10:52;;;;;;;;;;;-1.60;99.90;;;;;;5037144;28;20131;-70
2021/01/16 10:13:38;;;;;;;33.58;18.08;;;-1.50;99.90;;;;;;5037121;28;19943;-70
2021/01/16 10:16:07;;;;;;;31.30;17.23;;;-1.40;99.90;;;;;;5041578;28;20053;-69
2021/01/16 10:18:34;;;;;;;32.22;17.27;;;-1.50;99.90;;;;;;5045761;28;20049;-69
2021/01/16 10:21:09;;;;;;;30.60;18.13;;;-1.50;99.90;;;;;;5038108;28;20060;-69
2021/01/16 10:23:39;;;;;;;34.67;19.10;;;-1.40;99.90;;;;;;5044615;28;20060;-69
2021/01/16 10:26:14;;;;;;;31.23;16.95;;;-1.30;99.90;;;;;;5048735;28;20427;-69
2021/01/16 10:29:06;;;;;;;38.28;20.17;;;-1.20;99.90;;;;;;5043739;28;20553;-70
2021/01/16 10:31:33;;;;;;;29.33;16.33;;;-1.30;99.90;;;;;;5040748;28;20052;-69
2021/01/16 10:34:09;;;;;;;30.33;15.65;;;-1.40;99.90;;;;;;5048155;28;20275;-70
2021/01/16 10:36:36;;;;;;;25.27;14.65;;;-1.40;99.90;;;;;;5040764;28;20547;-69
2021/01/16 10:39:15;;;;;;;26.58;15.50;;;-1.30;99.90;;;;;;5049349;28;20101;-70
2021/01/16 10:41:46;;;;;;;24.20;15.05;;;-1.00;99.90;;;;;;5050291;28;20060;-69
2021/01/16 10:44:14;;;;;;;26.27;14.95;;;-0.90;99.90;;;;;;5037735;28;20369;-70
2021/01/16 10:46:47;;;;;;;30.73;17.15;;;-0.70;99.90;;;;;;5039927;28;20044;-69
2021/01/16 10:49:15;;;;;;;29.67;17.33;;;-0.50;99.90;;;;;;5038365;28;20038;-71
2021/01/16 10:51:51;;;;;;;28.00;16.17;;;-0.50;99.90;;;;;;5031875;28;20567;-70
2021/01/16 10:54:18;;;;;;;24.67;14.07;;;-0.30;99.90;;;;;;5050742;28;20072;-69
2021/01/16 10:56:59;;;;;;;22.33;13.50;;;0.00;99.90;;;;;;5050023;28;20095;-70
2021/01/16 10:59:27;;;;;;;26.80;15.43;;;0.00;99.90;;;;;;5045427;28;20073;-70
2021/01/16 11:01:54;;;;;;;23.77;12.95;;;-0.20;99.90;;;;;;5030158;28;20045;-69
2021/01/16 11:04:25;;;;;;;24.98;13.10;;;-0.40;99.90;;;;;;5061461;28;20049;-71
2021/01/16 11:06:59;;;;;;;27.55;15.38;;;-0.60;99.90;;;;;;5037395;28;20056;-71
2021/01/16 11:09:35;;;;;;;26.42;14.20;;;-0.60;99.90;;;;;;5038201;28;20076;-70
2021/01/16 11:12:06;;;;;;;25.20;13.35;;;-0.60;99.90;;;;;;5033283;28;20069;-69
2021/01/16 11:14:42;;;;;;;26.27;13.80;;;-0.50;99.90;;;;;;5034377;28;20179;-69
2021/01/16 11:17:10;;;;;;;18.10;10.50;;;-0.40;99.90;;;;;;5036507;28;20053;-70
2021/01/16 11:19:42;;;;;;;26.27;13.88;;;-0.30;99.90;;;;;;5035067;28;20053;-69
2021/01/16 11:22:13;;;;;;;20.30;9.75;;;0.00;99.90;;;;;;5040939;28;20445;-70
2021/01/16 11:24:54;;;;;;;23.58;12.88;;;0.20;99.90;;;;;;5040663;28;20417;-70
2021/01/16 11:27:27;;;;;;;25.58;13.57;;;0.40;99.90;;;;;;5038452;28;20045;-69
2021/01/16 11:30:04;;;;;;;20.85;11.23;;;0.50;99.90;;;;;;5041875;28;20451;-69
2021/01/16 11:32:36;;;;;;;19.23;10.57;;;0.40;99.90;;;;;;5032884;28;20558;-69
2021/01/16 11:35:12;;;;;;;21.45;13.45;;;0.20;99.90;;;;;;5039386;28;20076;-69
2021/01/16 11:37:50;;;;;;;23.75;12.45;;;-0.10;99.90;;;;;;5031655;28;20422;-69
2021/01/16 11:40:37;;;;;;;22.52;12.60;;;-0.10;99.90;;;;;;5030495;28;20091;-69
2021/01/16 11:43:09;;;;;;;18.63;10.95;;;-0.10;99.90;;;;;;5030084;28;20049;-69
2021/01/16 11:45:36;;;;;;;25.73;13.90;;;-0.30;99.90;;;;;;5037452;28;20158;-69
2021/01/16 11:48:05;;;;;;;25.88;15.13;;;-0.30;99.90;;;;;;5030104;28;20041;-69
2021/01/16 11:50:37;;;;;;;26.52;14.95;;;-0.20;99.90;;;;;;5037841;28;20056;-70
2021/01/16 11:53:07;;;;;;;22.50;13.25;;;-0.10;99.90;;;;;;5030812;28;20510;-69
2021/01/16 11:55:34;;;;;;;22.83;13.82;;;0.10;99.90;;;;;;5045896;28;20061;-69
2021/01/16 11:58:02;;;;;;;18.85;10.43;;;0.50;99.90;;;;;;5034687;28;20609;-71
2021/01/16 12:00:29;;;;;;;21.65;11.20;;;1.10;99.90;;;;;;5041760;28;20077;-70
2021/01/16 12:03:15;;;;;;;21.13;11.50;;;1.50;99.90;;;;;;5037803;28;20423;-71
2021/01/16 12:05:42;;;;;;;17.60;10.07;;;1.70;99.90;;;;;;5046579;28;20052;-70
2021/01/16 12:08:12;;;;;;;20.75;10.95;;;1.60;99.90;;;;;;5043032;28;20041;-69
2021/01/16 12:10:39;;;;;;;16.38;9.85;;;1.40;99.90;;;;;;5036771;28;20083;-69
2021/01/16 12:13:11;;;;;;;19.52;10.52;;;1.20;99.90;;;;;;5028168;28;20041;-69
2021/01/16 12:15:37;;;;;;;12.02;6.85;;;1.30;99.90;;;;;;5028716;28;20181;-70
2021/01/16 12:18:04;;;;;;;18.13;8.40;;;1.00;99.40;;;;;;5027920;28;20141;-70
2021/01/16 12:20:34;;;;;;;33.60;18.65;;;0.50;99.90;;;;;;5056825;28;20643;-69
2021/01/16 12:23:02;;;;;;;28.70;16.13;;;0.70;99.90;;;;;;5048689;28;20081;-69
2021/01/16 12:25:30;;;;;;;51.90;25.73;;;1.00;99.90;;;;;;5045376;28;20162;-69
2021/01/16 12:28:06;;;;;;;19.30;11.02;;;1.20;99.90;;;;;;5047289;28;20041;-69
2021/01/16 12:30:38;;;;;;;15.27;9.32;;;1.30;99.50;;;;;;5037201;28;20113;-70
2021/01/16 12:33:05;;;;;;;20.27;12.60;;;1.30;99.60;;;;;;5030592;28;20064;-74
2021/01/16 12:35:35;;;;;;;15.23;8.73;;;1.20;99.90;;;;;;5045168;28;20048;-70
2021/01/16 12:38:02;;;;;;;18.27;9.02;;;1.20;99.70;;;;;;5042502;28;20435;-70
2021/01/16 12:40:29;;;;;;;16.08;8.55;;;1.20;99.90;;;;;;5037488;28;20057;-74
2021/01/16 12:42:56;;;;;;;16.88;9.25;;;1.40;99.50;;;;;;5041156;28;20052;-74
2021/01/16 12:45:24;;;;;;;30.13;14.70;;;1.40;99.60;;;;;;5045778;28;20057;-75
2021/01/16 12:47:52;;;;;;;15.82;9.52;;;1.40;99.60;;;;;;5047030;28;20111;-75
2021/01/16 12:50:21;;;;;;;16.95;9.07;;;1.20;99.90;;;;;;5044007;28;20076;-72
2021/01/16 12:52:50;;;;;;;17.13;9.52;;;0.90;99.90;;;;;;5056672;28;20539;-73